createdAt,value
2023-08-23T00:01:40.321Z,19.26
2023-08-23T00:04:08.403Z,19.23
2023-08-23T00:06:36.594Z,19.21
2023-08-23T00:09:07.917Z,19.21
2023-08-23T00:11:36.040Z,19.20
2023-08-23T00:14:04.033Z,19.17
2023-08-23T00:16:31.956Z,19.14
2023-08-23T00:19:00.087Z,19.12
2023-08-23T00:21:31.321Z,19.10
2023-08-23T00:23:59.287Z,19.08
2023-08-23T00:26:27.672Z,19.07
2023-08-23T00:28:55.731Z,19.05
2023-08-23T00:31:23.945Z,19.04
2023-08-23T00:33:52.032Z,19.01
2023-08-23T00:36:20.248Z,18.98
2023-08-23T00:38:48.526Z,18.95
2023-08-23T00:41:16.796Z,18.92
2023-08-23T00:43:44.975Z,18.90
2023-08-23T00:46:13.740Z,18.89
2023-08-23T00:48:42.448Z,18.88
2023-08-23T00:51:11.366Z,18.86
2023-08-23T00:53:39.717Z,18.84
2023-08-23T00:56:08.218Z,18.81
2023-08-23T00:58:36.682Z,18.79
2023-08-23T01:01:05.782Z,18.77
2023-08-23T01:03:34.561Z,18.76
2023-08-23T01:06:17.754Z,18.74
2023-08-23T01:08:48.961Z,18.73
2023-08-23T01:11:42.677Z,18.72
2023-08-23T01:14:41.848Z,18.70
2023-08-23T01:17:11.325Z,18.68
2023-08-23T01:19:49.362Z,18.66
2023-08-23T01:22:25.607Z,18.63
2023-08-23T01:24:54.997Z,18.61
2023-08-23T01:27:23.211Z,18.59
2023-08-23T01:29:51.240Z,18.58
2023-08-23T01:32:38.507Z,18.59
2023-08-23T01:35:18.254Z,18.59
2023-08-23T01:37:51.709Z,18.57
2023-08-23T01:40:20.106Z,18.57
2023-08-23T01:42:49.273Z,18.56
2023-08-23T01:45:17.357Z,18.54
2023-08-23T01:47:45.713Z,18.52
2023-08-23T01:50:14.407Z,18.50
2023-08-23T01:52:42.422Z,18.48
2023-08-23T01:55:10.602Z,18.46
2023-08-23T01:57:40.366Z,18.44
2023-08-23T02:00:09.198Z,18.41
2023-08-23T02:02:42.542Z,18.40
2023-08-23T02:05:10.815Z,18.40
2023-08-23T02:07:38.907Z,18.38
2023-08-23T02:10:07.569Z,18.37
2023-08-23T02:12:35.746Z,18.35
2023-08-23T02:15:04.165Z,18.33
2023-08-23T02:17:32.278Z,18.31
2023-08-23T02:20:00.236Z,18.30
2023-08-23T02:22:28.364Z,18.29
2023-08-23T02:24:57.429Z,18.26
2023-08-23T02:27:25.428Z,18.23
2023-08-23T02:29:54.040Z,18.21
2023-08-23T02:32:22.573Z,18.19
2023-08-23T02:34:50.992Z,18.17
2023-08-23T02:37:19.244Z,18.14
2023-08-23T02:39:47.428Z,18.13
2023-08-23T02:42:15.600Z,18.11
2023-08-23T02:44:43.875Z,18.10
2023-08-23T02:47:11.904Z,18.09
2023-08-23T02:49:39.827Z,18.08
2023-08-23T02:52:07.745Z,18.07
2023-08-23T02:54:37.234Z,18.06
2023-08-23T02:57:05.444Z,18.04
2023-08-23T02:59:33.455Z,18.02
2023-08-23T03:02:01.425Z,18.00
2023-08-23T03:04:29.982Z,17.97
2023-08-23T03:06:57.858Z,17.95
2023-08-23T03:09:25.725Z,17.93
2023-08-23T03:11:53.927Z,17.92
2023-08-23T03:14:21.879Z,17.91
2023-08-23T03:16:50.140Z,17.90
2023-08-23T03:19:18.312Z,17.89
2023-08-23T03:21:46.211Z,17.87
2023-08-23T03:24:14.339Z,17.86
2023-08-23T03:26:42.616Z,17.85
2023-08-23T03:29:11.392Z,17.84
2023-08-23T03:31:40.004Z,17.84
2023-08-23T03:34:09.357Z,17.83
2023-08-23T03:36:37.458Z,17.82
2023-08-23T03:39:05.474Z,17.81
2023-08-23T03:41:33.563Z,17.80
2023-08-23T03:44:01.489Z,17.79
2023-08-23T03:46:29.681Z,17.79
2023-08-23T03:48:57.945Z,17.79
2023-08-23T03:51:26.021Z,17.78
2023-08-23T03:53:54.517Z,17.78
2023-08-23T03:56:22.437Z,17.77
2023-08-23T03:58:52.014Z,17.78
2023-08-23T04:01:19.973Z,17.77
2023-08-23T04:03:48.190Z,17.76
2023-08-23T04:06:16.210Z,17.78
2023-08-23T04:08:44.570Z,17.79
2023-08-23T04:11:12.778Z,17.81
2023-08-23T04:13:42.448Z,17.83
2023-08-23T04:16:13.199Z,17.86
2023-08-23T04:18:41.399Z,17.90
2023-08-23T04:21:09.439Z,17.97
2023-08-23T04:23:38.229Z,18.04
2023-08-23T04:26:06.397Z,18.10
2023-08-23T04:28:34.404Z,18.16
2023-08-23T04:31:02.908Z,18.22
2023-08-23T04:33:37.385Z,18.32
2023-08-23T04:36:05.942Z,18.40
2023-08-23T04:38:34.027Z,18.48
2023-08-23T04:41:03.407Z,18.57
2023-08-23T04:43:33.036Z,18.68
2023-08-23T04:46:01.669Z,18.79
2023-08-23T04:48:29.883Z,18.91
2023-08-23T04:50:59.157Z,19.03
2023-08-23T04:53:28.594Z,19.15
2023-08-23T04:56:00.112Z,19.28
2023-08-23T04:58:31.491Z,19.41
2023-08-23T05:01:05.152Z,19.55
2023-08-23T05:03:34.645Z,19.75
2023-08-23T05:06:03.720Z,19.99
2023-08-23T05:08:33.685Z,20.28
2023-08-23T05:11:04.811Z,20.62
2023-08-23T05:13:32.944Z,21.00
2023-08-23T05:16:02.223Z,21.41
2023-08-23T05:18:30.621Z,21.84
2023-08-23T05:21:03.779Z,22.29
2023-08-23T05:23:32.300Z,22.73
2023-08-23T05:26:01.796Z,23.17
2023-08-23T05:28:30.622Z,23.66
2023-08-23T05:31:04.346Z,24.14
2023-08-23T05:33:32.920Z,24.64
2023-08-23T05:36:00.766Z,25.16
2023-08-23T05:38:30.468Z,25.67
2023-08-23T05:40:59.757Z,26.21
2023-08-23T05:43:28.746Z,26.73
2023-08-23T05:45:57.962Z,27.20
2023-08-23T05:48:26.045Z,27.70
2023-08-23T05:50:54.429Z,28.19
2023-08-23T05:53:22.317Z,28.66
2023-08-23T05:55:51.076Z,29.12
2023-08-23T05:58:19.884Z,29.61
2023-08-23T06:00:50.635Z,30.14
2023-08-23T06:03:18.868Z,30.72
2023-08-23T06:05:47.111Z,31.30
2023-08-23T06:08:15.122Z,31.81
2023-08-23T06:10:43.022Z,32.29
2023-08-23T06:13:10.865Z,32.77
2023-08-23T06:15:39.109Z,33.26
2023-08-23T06:18:07.564Z,33.79
2023-08-23T06:20:35.569Z,34.34
2023-08-23T06:23:04.159Z,34.89
2023-08-23T06:25:32.177Z,35.41
2023-08-23T06:27:59.973Z,35.86
2023-08-23T06:30:27.959Z,36.30
2023-08-23T06:32:57.258Z,36.81
2023-08-23T06:35:27.474Z,37.28
2023-08-23T06:37:55.861Z,37.72
2023-08-23T06:40:24.443Z,38.14
2023-08-23T06:42:52.420Z,38.52
2023-08-23T06:45:20.678Z,38.82
2023-08-23T06:47:50.560Z,39.02
2023-08-23T06:50:19.058Z,39.17
2023-08-23T06:52:47.726Z,39.14
2023-08-23T06:55:15.999Z,38.83
2023-08-23T06:57:44.045Z,38.38
2023-08-23T07:00:13.931Z,38.00
2023-08-23T07:02:42.497Z,37.68
2023-08-23T07:05:10.569Z,37.36
2023-08-23T07:07:38.888Z,37.15
2023-08-23T07:10:17.885Z,36.99
2023-08-23T07:12:55.252Z,36.81
2023-08-23T07:15:24.241Z,36.66
2023-08-23T07:17:52.232Z,36.54
2023-08-23T07:20:20.578Z,36.42
2023-08-23T07:22:48.659Z,36.29
2023-08-23T07:25:17.338Z,36.17
2023-08-23T07:27:46.092Z,36.04
2023-08-23T07:30:14.980Z,35.87
2023-08-23T07:32:44.089Z,35.70
2023-08-23T07:35:12.185Z,35.51
2023-08-23T07:37:40.285Z,35.35
2023-08-23T07:40:10.905Z,35.23
2023-08-23T07:42:39.336Z,35.13
2023-08-23T07:45:09.127Z,35.04
2023-08-23T07:47:38.186Z,34.95
2023-08-23T07:50:07.480Z,34.87
2023-08-23T07:52:36.752Z,34.77
2023-08-23T07:55:06.551Z,34.71
2023-08-23T07:57:34.857Z,34.64
2023-08-23T08:00:03.214Z,34.55
2023-08-23T08:02:34.498Z,34.44
2023-08-23T08:05:02.699Z,34.38
2023-08-23T08:08:06.165Z,34.35
2023-08-23T08:10:21.394Z,34.37
2023-08-23T08:12:49.495Z,34.37
2023-08-23T08:15:17.622Z,34.37
2023-08-23T08:17:46.565Z,34.38
2023-08-23T08:20:15.267Z,34.39
2023-08-23T08:22:43.408Z,34.42
2023-08-23T08:25:14.097Z,34.48
2023-08-23T08:27:43.041Z,34.53
2023-08-23T08:30:11.858Z,34.60
2023-08-23T08:32:40.103Z,34.66
2023-08-23T08:35:34.973Z,34.72
2023-08-23T08:38:03.409Z,34.76
2023-08-23T08:40:31.222Z,34.76
2023-08-23T08:43:00.272Z,34.76
2023-08-23T08:45:28.517Z,34.76
2023-08-23T08:47:56.695Z,34.72
2023-08-23T08:50:27.155Z,34.70
2023-08-23T08:52:57.371Z,34.73
2023-08-23T08:55:26.053Z,34.74
2023-08-23T08:57:55.578Z,34.74
2023-08-23T09:00:31.134Z,34.76
2023-08-23T09:03:00.759Z,34.77
2023-08-23T09:05:29.498Z,34.80
2023-08-23T09:07:58.193Z,34.87
2023-08-23T09:10:26.354Z,34.95
2023-08-23T09:12:54.394Z,35.04
2023-08-23T09:15:25.419Z,35.10
2023-08-23T09:17:57.072Z,35.13
2023-08-23T09:20:25.697Z,35.18
2023-08-23T09:22:54.608Z,35.19
2023-08-23T09:25:24.871Z,35.22
2023-08-23T09:27:56.384Z,35.27
2023-08-23T09:30:25.523Z,35.27
2023-08-23T09:32:53.842Z,35.25
2023-08-23T09:35:22.071Z,35.25
2023-08-23T09:37:50.720Z,35.27
2023-08-23T09:40:27.996Z,35.29
2023-08-23T09:42:59.831Z,35.32
2023-08-23T09:45:29.421Z,35.37
2023-08-23T09:48:03.378Z,35.42
2023-08-23T09:50:33.731Z,35.47
2023-08-23T09:53:07.499Z,35.50
2023-08-23T09:55:36.218Z,35.53
2023-08-23T09:58:04.722Z,35.56
2023-08-23T10:00:33.911Z,35.58
2023-08-23T10:03:02.451Z,35.51
2023-08-23T10:05:31.010Z,35.40
2023-08-23T10:07:59.046Z,35.20
2023-08-23T10:10:28.768Z,34.97
2023-08-23T10:13:05.364Z,34.68
2023-08-23T10:15:37.156Z,34.38
2023-08-23T10:18:09.260Z,34.07
2023-08-23T10:20:38.389Z,33.81
2023-08-23T10:23:17.245Z,33.59
2023-08-23T10:25:49.559Z,33.34
2023-08-23T10:28:19.571Z,33.12
2023-08-23T10:30:50.975Z,32.91
2023-08-23T10:33:21.210Z,32.70
2023-08-23T10:35:49.338Z,32.52
2023-08-23T10:38:17.364Z,32.34
2023-08-23T10:40:46.551Z,32.16
2023-08-23T10:43:19.633Z,31.81
2023-08-23T10:46:03.998Z,31.31
2023-08-23T10:48:33.116Z,30.62
2023-08-23T10:51:01.994Z,30.09
2023-08-23T10:53:31.516Z,29.68
2023-08-23T10:56:03.750Z,29.31
2023-08-23T10:58:32.947Z,28.98
2023-08-23T11:01:01.240Z,28.65
2023-08-23T11:03:29.928Z,28.34
2023-08-23T11:05:58.132Z,28.08
2023-08-23T11:08:26.420Z,27.85
2023-08-23T11:10:54.491Z,27.67
2023-08-23T11:13:22.843Z,27.48
2023-08-23T11:15:51.048Z,27.30
2023-08-23T11:18:19.369Z,27.09
2023-08-23T11:20:47.655Z,26.93
2023-08-23T11:23:15.574Z,26.80
2023-08-23T11:25:43.575Z,26.67
2023-08-23T11:28:13.869Z,26.54
2023-08-23T11:30:45.376Z,26.43
2023-08-23T11:33:13.678Z,26.36
2023-08-23T11:35:41.744Z,26.27
2023-08-23T11:38:09.944Z,26.10
2023-08-23T11:40:37.970Z,25.94
2023-08-23T11:43:21.868Z,25.79
2023-08-23T11:45:53.902Z,25.71
2023-08-23T11:48:25.007Z,25.73
2023-08-23T11:50:54.137Z,25.85
2023-08-23T11:53:22.343Z,26.01
2023-08-23T11:55:51.395Z,26.20
2023-08-23T11:58:19.721Z,26.42
2023-08-23T12:00:50.048Z,26.66
2023-08-23T12:03:18.711Z,26.95
2023-08-23T12:05:47.033Z,27.22
2023-08-23T12:08:15.126Z,27.50
2023-08-23T12:10:43.331Z,27.73
2023-08-23T12:13:13.471Z,27.92
2023-08-23T12:15:41.924Z,28.05
2023-08-23T12:18:09.844Z,28.15
2023-08-23T12:20:37.904Z,28.22
2023-08-23T12:23:05.795Z,28.25
2023-08-23T12:25:34.694Z,28.26
2023-08-23T12:28:02.665Z,28.24
2023-08-23T12:30:31.869Z,28.20
2023-08-23T12:33:00.006Z,28.14
2023-08-23T12:35:27.981Z,28.06
2023-08-23T12:37:55.922Z,27.98
2023-08-23T12:40:24.054Z,27.90
2023-08-23T12:42:53.148Z,27.79
2023-08-23T12:45:21.750Z,27.68
2023-08-23T12:47:50.081Z,27.58
2023-08-23T12:50:18.894Z,27.46
2023-08-23T12:52:46.999Z,27.34
2023-08-23T12:55:15.249Z,27.23
2023-08-23T12:57:43.248Z,27.14
2023-08-23T13:00:29.300Z,27.05
2023-08-23T13:03:01.255Z,26.95
2023-08-23T13:05:29.552Z,26.88
2023-08-23T13:07:57.820Z,26.82
2023-08-23T13:10:26.003Z,26.77
2023-08-23T13:12:54.098Z,26.72
2023-08-23T13:15:22.253Z,26.69
2023-08-23T13:17:55.708Z,26.72
2023-08-23T13:20:25.726Z,26.75
2023-08-23T13:22:54.553Z,26.78
2023-08-23T13:25:22.729Z,26.81
2023-08-23T13:27:51.335Z,26.84
2023-08-23T13:30:19.895Z,26.85
2023-08-23T13:32:47.861Z,26.86
2023-08-23T13:35:16.345Z,26.87
2023-08-23T13:37:47.821Z,26.83
2023-08-23T13:40:16.360Z,26.81
2023-08-23T13:42:44.455Z,26.79
2023-08-23T13:45:12.453Z,26.78
2023-08-23T13:47:40.725Z,26.76
2023-08-23T13:50:10.471Z,26.74
2023-08-23T13:52:38.526Z,26.71
2023-08-23T13:55:07.663Z,26.68
2023-08-23T13:57:36.994Z,26.63
2023-08-23T14:00:06.037Z,26.56
2023-08-23T14:02:36.053Z,26.49
2023-08-23T14:05:05.032Z,26.43
2023-08-23T14:07:33.081Z,26.37
2023-08-23T14:10:01.141Z,26.30
2023-08-23T14:12:29.364Z,26.22
2023-08-23T14:14:57.283Z,26.15
2023-08-23T14:17:25.214Z,26.09
2023-08-23T14:19:55.385Z,26.03
2023-08-23T14:22:23.669Z,25.99
2023-08-23T14:24:52.014Z,25.96
2023-08-23T14:27:19.916Z,25.94
2023-08-23T14:29:48.374Z,25.92
2023-08-23T14:32:18.504Z,25.90
2023-08-23T14:34:47.282Z,25.88
2023-08-23T14:37:15.239Z,25.87
2023-08-23T14:39:45.390Z,25.85
2023-08-23T14:42:13.278Z,25.82
2023-08-23T14:44:41.518Z,25.78
2023-08-23T14:47:10.768Z,25.73
2023-08-23T14:49:38.945Z,25.68
2023-08-23T14:52:07.022Z,25.63
2023-08-23T14:54:35.135Z,25.59
2023-08-23T14:57:03.311Z,25.54
2023-08-23T14:59:31.381Z,25.50
2023-08-23T15:01:59.507Z,25.45
2023-08-23T15:04:27.677Z,25.40
2023-08-23T15:06:55.529Z,25.34
2023-08-23T15:09:23.386Z,25.26
2023-08-23T15:11:51.431Z,25.20
2023-08-23T15:14:19.921Z,25.13
2023-08-23T15:16:48.105Z,25.04
2023-08-23T15:19:16.166Z,24.96
2023-08-23T15:21:44.321Z,24.88
2023-08-23T15:24:12.616Z,24.79
2023-08-23T15:26:40.822Z,24.70
2023-08-23T15:29:09.074Z,24.60
2023-08-23T15:31:37.275Z,24.48
2023-08-23T15:34:05.762Z,24.37
2023-08-23T15:36:35.482Z,24.25
2023-08-23T15:39:04.341Z,24.15
2023-08-23T15:41:32.248Z,24.04
2023-08-23T15:44:00.977Z,23.91
2023-08-23T15:46:29.151Z,23.82
2023-08-23T15:48:57.270Z,23.77
2023-08-23T15:51:25.258Z,23.76
2023-08-23T15:53:53.732Z,23.74
2023-08-23T15:56:26.357Z,23.74
2023-08-23T15:58:54.836Z,23.75
2023-08-23T16:01:23.100Z,23.75
2023-08-23T16:03:51.302Z,23.75
2023-08-23T16:06:20.054Z,23.76
2023-08-23T16:08:48.144Z,23.77
2023-08-23T16:11:16.530Z,23.78
2023-08-23T16:13:44.597Z,23.79
2023-08-23T16:16:12.663Z,23.80
2023-08-23T16:18:40.656Z,23.81
2023-08-23T16:21:08.772Z,23.81
2023-08-23T16:23:39.757Z,23.78
2023-08-23T16:26:09.848Z,23.74
2023-08-23T16:28:38.029Z,23.72
2023-08-23T16:31:06.369Z,23.68
2023-08-23T16:33:34.392Z,23.64
2023-08-23T16:36:02.353Z,23.58
2023-08-23T16:38:30.440Z,23.51
2023-08-23T16:40:59.109Z,23.45
2023-08-23T16:43:33.395Z,23.39
2023-08-23T16:46:01.724Z,23.31
2023-08-23T16:48:30.181Z,23.22
2023-08-23T16:51:01.036Z,23.13
2023-08-23T16:53:30.335Z,23.04
2023-08-23T16:56:01.387Z,22.96
2023-08-23T16:58:31.654Z,22.87
2023-08-23T17:01:00.643Z,22.79
2023-08-23T17:03:31.317Z,22.70
2023-08-23T17:06:07.625Z,22.62
2023-08-23T17:08:35.817Z,22.56
2023-08-23T17:11:07.035Z,22.50
2023-08-23T17:13:35.279Z,22.42
2023-08-23T17:16:03.665Z,22.34
2023-08-23T17:18:35.094Z,22.29
2023-08-23T17:21:04.620Z,22.21
2023-08-23T17:23:34.730Z,22.15
2023-08-23T17:26:03.275Z,22.07
2023-08-23T17:28:31.712Z,22.00
2023-08-23T17:31:00.842Z,21.91
2023-08-23T17:33:28.980Z,21.79
2023-08-23T17:35:59.120Z,21.71
2023-08-23T17:38:27.266Z,21.63
2023-08-23T17:40:55.451Z,21.55
2023-08-23T17:43:23.392Z,21.48
2023-08-23T17:45:51.507Z,21.45
2023-08-23T17:48:19.954Z,21.41
2023-08-23T17:50:48.150Z,21.38
2023-08-23T17:53:16.000Z,21.33
2023-08-23T17:55:44.119Z,21.29
2023-08-23T17:58:12.183Z,21.28
2023-08-23T18:00:40.210Z,21.26
2023-08-23T18:03:08.140Z,21.22
2023-08-23T18:05:36.300Z,21.17
2023-08-23T18:08:04.765Z,21.12
2023-08-23T18:10:32.676Z,21.08
2023-08-23T18:13:00.799Z,21.05
2023-08-23T18:15:28.935Z,21.01
2023-08-23T18:17:57.078Z,20.98
2023-08-23T18:20:25.086Z,20.94
2023-08-23T18:22:54.595Z,20.92
2023-08-23T18:25:22.692Z,20.89
2023-08-23T18:27:50.756Z,20.84
2023-08-23T18:30:18.758Z,20.79
2023-08-23T18:32:46.986Z,20.76
2023-08-23T18:35:15.391Z,20.73
2023-08-23T18:37:43.460Z,20.70
2023-08-23T18:40:12.137Z,20.68
2023-08-23T18:42:40.317Z,20.68
2023-08-23T18:45:08.899Z,20.67
2023-08-23T18:47:36.973Z,20.65
2023-08-23T18:50:05.916Z,20.65
2023-08-23T18:52:33.718Z,20.65
2023-08-23T18:55:01.753Z,20.65
2023-08-23T18:57:30.397Z,20.65
2023-08-23T18:59:58.567Z,20.66
2023-08-23T19:02:27.062Z,20.66
2023-08-23T19:04:55.321Z,20.66
2023-08-23T19:07:23.447Z,20.66
2023-08-23T19:09:51.526Z,20.65
2023-08-23T19:12:19.463Z,20.64
2023-08-23T19:14:47.644Z,20.60
2023-08-23T19:17:15.682Z,20.56
2023-08-23T19:19:47.012Z,20.55
2023-08-23T19:22:15.100Z,20.54
2023-08-23T19:24:42.972Z,20.53
2023-08-23T19:27:11.041Z,20.52
2023-08-23T19:29:40.476Z,20.52
2023-08-23T19:32:12.087Z,20.52
2023-08-23T19:34:40.344Z,20.50
2023-08-23T19:37:08.964Z,20.51
2023-08-23T19:39:37.085Z,20.50
2023-08-23T19:42:05.468Z,20.50
2023-08-23T19:44:33.485Z,20.49
2023-08-23T19:47:01.871Z,20.48
2023-08-23T19:49:29.801Z,20.46
2023-08-23T19:51:58.257Z,20.43
2023-08-23T19:54:26.198Z,20.40
2023-08-23T19:56:54.118Z,20.38
2023-08-23T19:59:22.085Z,20.35
2023-08-23T20:01:50.615Z,20.33
2023-08-23T20:04:18.699Z,20.33
2023-08-23T20:06:47.053Z,20.32
2023-08-23T20:09:15.203Z,20.33
2023-08-23T20:11:44.527Z,20.31
2023-08-23T20:14:12.498Z,20.33
2023-08-23T20:16:40.730Z,20.32
2023-08-23T20:19:09.586Z,20.30
2023-08-23T20:21:38.172Z,20.28
2023-08-23T20:24:09.678Z,20.30
2023-08-23T20:26:37.657Z,20.31
2023-08-23T20:29:07.915Z,20.32
2023-08-23T20:31:35.769Z,20.34
2023-08-23T20:34:04.753Z,20.36
2023-08-23T20:36:32.920Z,20.37
2023-08-23T20:39:00.852Z,20.36
2023-08-23T20:41:28.844Z,20.35
2023-08-23T20:43:56.898Z,20.34
2023-08-23T20:46:24.882Z,20.32
2023-08-23T20:48:53.081Z,20.29
2023-08-23T20:51:21.079Z,20.24
2023-08-23T20:53:50.132Z,20.20
2023-08-23T20:56:18.244Z,20.16
2023-08-23T20:58:46.317Z,20.12
2023-08-23T21:01:14.368Z,20.09
2023-08-23T21:03:42.414Z,20.04
2023-08-23T21:06:11.831Z,19.99
2023-08-23T21:08:40.635Z,19.94
2023-08-23T21:11:08.389Z,19.90
2023-08-23T21:13:36.571Z,19.86
2023-08-23T21:16:04.666Z,19.83
2023-08-23T21:18:32.601Z,19.79
2023-08-23T21:21:00.884Z,19.75
2023-08-23T21:23:29.540Z,19.70
2023-08-23T21:25:57.725Z,19.65
2023-08-23T21:28:25.713Z,19.63
2023-08-23T21:30:53.782Z,19.63
2023-08-23T21:33:23.203Z,19.62
2023-08-23T21:35:51.609Z,19.62
2023-08-23T21:38:19.948Z,19.61
2023-08-23T21:40:55.583Z,19.58
2023-08-23T21:43:26.418Z,19.54
2023-08-23T21:45:54.564Z,19.49
2023-08-23T21:48:23.823Z,19.45
2023-08-23T21:50:52.880Z,19.43
2023-08-23T21:53:21.075Z,19.41
2023-08-23T21:55:54.963Z,19.39
2023-08-23T21:58:29.509Z,19.36
2023-08-23T22:01:01.601Z,19.33
2023-08-23T22:03:38.358Z,19.31
2023-08-23T22:06:08.741Z,19.30
2023-08-23T22:08:38.742Z,19.28
2023-08-23T22:11:10.107Z,19.25
2023-08-23T22:13:42.608Z,19.24
2023-08-23T22:16:11.561Z,19.22
2023-08-23T22:18:40.178Z,19.18
2023-08-23T22:21:11.424Z,19.17
2023-08-23T22:23:39.658Z,19.15
2023-08-23T22:26:07.987Z,19.13
2023-08-23T22:28:35.993Z,19.10
2023-08-23T22:31:04.199Z,19.07
2023-08-23T22:33:32.224Z,19.05
2023-08-23T22:36:00.319Z,19.03
2023-08-23T22:38:28.586Z,19.03
2023-08-23T22:40:56.979Z,19.01
2023-08-23T22:43:25.446Z,19.02
2023-08-23T22:45:54.832Z,19.03
2023-08-23T22:48:23.410Z,19.03
2023-08-23T22:50:52.007Z,19.01
2023-08-23T22:53:20.160Z,18.99
2023-08-23T22:55:48.306Z,18.97
2023-08-23T22:58:16.526Z,18.94
2023-08-23T23:00:44.660Z,18.92
2023-08-23T23:03:12.774Z,18.90
2023-08-23T23:05:41.126Z,18.87
2023-08-23T23:08:09.337Z,18.84
2023-08-23T23:10:37.793Z,18.79
2023-08-23T23:13:05.930Z,18.76
2023-08-23T23:15:34.356Z,18.74
2023-08-23T23:18:03.716Z,18.71
2023-08-23T23:20:31.741Z,18.68
2023-08-23T23:22:59.697Z,18.64
2023-08-23T23:25:29.200Z,18.60
2023-08-23T23:27:57.141Z,18.56
2023-08-23T23:30:25.886Z,18.53
2023-08-23T23:32:54.118Z,18.49
2023-08-23T23:35:22.469Z,18.47
2023-08-23T23:37:50.596Z,18.45
2023-08-23T23:40:19.112Z,18.43
2023-08-23T23:42:47.036Z,18.41
2023-08-23T23:45:35.355Z,18.39
2023-08-23T23:48:04.188Z,18.37
2023-08-23T23:50:33.006Z,18.37
2023-08-23T23:53:01.823Z,18.36
2023-08-23T23:55:30.137Z,18.36
2023-08-23T23:57:58.339Z,18.37
